createdAt,value
2022-09-01T00:00:08.985Z,101768.25
2022-09-01T00:02:37.263Z,101765.78
2022-09-01T00:05:07.540Z,101756.81
2022-09-01T00:07:35.815Z,101756.81
2022-09-01T00:10:07.601Z,101760.81
2022-09-01T00:12:35.644Z,101759.94
2022-09-01T00:15:03.217Z,101758.81
2022-09-01T00:17:31.174Z,101758.81
2022-09-01T00:19:58.042Z,101757.72
2022-09-01T00:22:24.961Z,101758.34
2022-09-01T00:24:52.122Z,101758.34
2022-09-01T00:27:19.018Z,101760.31
2022-09-01T00:29:45.933Z,101760.31
2022-09-01T00:32:13.025Z,101765.00
2022-09-01T00:34:40.631Z,101764.28
2022-09-01T00:37:08.289Z,101759.09
2022-09-01T00:39:35.670Z,101757.34
2022-09-01T00:42:03.859Z,101753.13
2022-09-01T00:44:31.904Z,101752.63
2022-09-01T00:46:59.770Z,101754.72
2022-09-01T00:49:35.723Z,101754.22
2022-09-01T00:52:15.775Z,101744.66
2022-09-01T00:54:49.321Z,101746.75
2022-09-01T00:57:17.318Z,101741.69
2022-09-01T00:59:53.337Z,101742.16
2022-09-01T01:02:20.419Z,101744.13
2022-09-01T01:04:47.314Z,101750.09
2022-09-01T01:07:16.899Z,101744.13
2022-09-01T01:09:46.680Z,101742.75
2022-09-01T01:12:18.493Z,101747.78
2022-09-01T01:14:50.901Z,101736.38
2022-09-01T01:17:23.205Z,101744.81
2022-09-01T01:20:13.060Z,101736.00
2022-09-01T01:23:12.089Z,101743.50
2022-09-01T01:25:57.490Z,101736.56
2022-09-01T01:28:31.848Z,101736.56
2022-09-01T01:31:14.529Z,101738.28
2022-09-01T01:33:47.812Z,101738.28
2022-09-01T01:36:24.873Z,101739.28
2022-09-01T01:38:53.152Z,101736.56
2022-09-01T01:41:21.875Z,101740.25
2022-09-01T01:43:48.779Z,101736.78
2022-09-01T01:46:19.243Z,101744.22
2022-09-01T01:48:48.648Z,101739.00
2022-09-01T01:51:26.810Z,101743.81
2022-09-01T01:53:55.781Z,101736.75
2022-09-01T01:56:25.609Z,101742.31
2022-09-01T01:58:57.668Z,101747.13
2022-09-01T02:01:30.048Z,101746.47
2022-09-01T02:04:00.542Z,101742.16
2022-09-01T02:06:29.402Z,101745.84
2022-09-01T02:08:59.061Z,101747.81
2022-09-01T02:11:27.279Z,101749.78
2022-09-01T02:13:57.229Z,101743.59
2022-09-01T02:16:28.339Z,101739.13
2022-09-01T02:18:56.627Z,101745.69
2022-09-01T02:21:27.092Z,101742.06
2022-09-01T02:24:00.278Z,101748.50
2022-09-01T02:26:47.338Z,101750.47
2022-09-01T02:29:21.884Z,101743.28
2022-09-01T02:31:53.319Z,101746.00
2022-09-01T02:34:24.927Z,101741.56
2022-09-01T02:36:56.106Z,101740.81
2022-09-01T02:39:29.683Z,101739.06
2022-09-01T02:41:57.264Z,101737.19
2022-09-01T02:44:27.803Z,101741.78
2022-09-01T02:46:55.888Z,101734.59
2022-09-01T02:49:29.672Z,101745.47
2022-09-01T02:52:01.547Z,101738.31
2022-09-01T02:54:32.886Z,101734.72
2022-09-01T02:57:00.784Z,101736.56
2022-09-01T02:59:30.338Z,101734.84
2022-09-01T03:02:00.944Z,101735.81
2022-09-01T03:04:34.832Z,101731.59
2022-09-01T03:07:04.450Z,101728.97
2022-09-01T03:09:32.740Z,101722.69
2022-09-01T03:11:59.650Z,101721.94
2022-09-01T03:14:26.512Z,101723.91
2022-09-01T03:16:54.422Z,101720.53
2022-09-01T03:19:21.513Z,101726.19
2022-09-01T03:21:48.713Z,101722.09
2022-09-01T03:24:20.247Z,101722.28
2022-09-01T03:26:50.803Z,101719.03
2022-09-01T03:29:19.517Z,101727.56
2022-09-01T03:31:46.880Z,101725.81
2022-09-01T03:34:16.459Z,101723.44
2022-09-01T03:36:50.872Z,101721.91
2022-09-01T03:39:26.674Z,101722.34
2022-09-01T03:41:53.828Z,101722.56
2022-09-01T03:44:21.146Z,101725.44
2022-09-01T03:46:48.030Z,101725.72
2022-09-01T03:49:15.618Z,101724.00
2022-09-01T03:51:45.154Z,101726.91
2022-09-01T03:54:13.135Z,101724.31
2022-09-01T03:56:41.535Z,101728.88
2022-09-01T03:59:16.851Z,101726.28
2022-09-01T04:01:45.854Z,101720.94
2022-09-01T04:04:14.898Z,101723.00
2022-09-01T04:06:45.186Z,101720.63
2022-09-01T04:09:14.416Z,101716.28
2022-09-01T04:11:46.243Z,101717.28
2022-09-01T04:14:16.380Z,101714.75
2022-09-01T04:17:03.551Z,101720.19
2022-09-01T04:19:39.221Z,101717.59
2022-09-01T04:22:08.046Z,101719.44
2022-09-01T04:24:45.927Z,101716.72
2022-09-01T04:27:18.241Z,101714.97
2022-09-01T04:29:46.502Z,101717.69
2022-09-01T04:32:13.530Z,101721.50
2022-09-01T04:34:46.941Z,101726.94
2022-09-01T04:37:22.004Z,101723.47
2022-09-01T04:39:58.416Z,101727.16
2022-09-01T04:42:32.350Z,101729.09
2022-09-01T04:45:09.952Z,101721.91
2022-09-01T04:47:42.002Z,101725.84
2022-09-01T04:50:17.223Z,101731.28
2022-09-01T04:53:02.381Z,101718.69
2022-09-01T04:55:32.820Z,101722.38
2022-09-01T04:58:08.341Z,101720.66
2022-09-01T05:00:37.494Z,101721.59
2022-09-01T05:03:05.082Z,101724.31
2022-09-01T05:05:55.384Z,101718.13
2022-09-01T05:08:24.588Z,101724.44
2022-09-01T05:10:56.660Z,101723.56
2022-09-01T05:13:57.802Z,101719.09
2022-09-01T05:16:27.252Z,101723.66
2022-09-01T05:18:57.055Z,101732.78
2022-09-01T05:21:29.840Z,101732.69
2022-09-01T05:24:01.488Z,101734.34
2022-09-01T05:26:33.949Z,101728.00
2022-09-01T05:29:10.555Z,101726.09
2022-09-01T05:31:38.030Z,101737.47
2022-09-01T05:34:05.649Z,101736.50
2022-09-01T05:36:33.611Z,101735.09
2022-09-01T05:39:03.326Z,101733.69
2022-09-01T05:41:30.486Z,101743.88
2022-09-01T05:44:00.551Z,101743.44
2022-09-01T05:46:30.098Z,101743.78
2022-09-01T05:48:58.671Z,101746.72
2022-09-01T05:51:50.483Z,101746.91
2022-09-01T05:54:27.275Z,101744.50
2022-09-01T05:57:12.627Z,101747.53
2022-09-01T05:59:42.039Z,101753.28
2022-09-01T06:02:14.102Z,101753.81
2022-09-01T06:04:41.263Z,101747.28
2022-09-01T06:07:16.603Z,101750.09
2022-09-01T06:09:53.702Z,101750.31
2022-09-01T06:12:23.451Z,101750.56
2022-09-01T06:14:53.815Z,101756.22
2022-09-01T06:17:29.589Z,101751.00
2022-09-01T06:20:00.877Z,101751.00
2022-09-01T06:22:29.413Z,101751.00
2022-09-01T06:25:02.169Z,101764.59
2022-09-01T06:27:38.734Z,101758.41
2022-09-01T06:30:14.912Z,101760.16
2022-09-01T06:32:49.683Z,101764.50
2022-09-01T06:35:18.113Z,101761.44
2022-09-01T06:37:48.502Z,101760.13
2022-09-01T06:40:32.451Z,101760.53
2022-09-01T06:43:02.074Z,101763.56
2022-09-01T06:45:28.973Z,101763.97
2022-09-01T06:47:57.632Z,101771.78
2022-09-01T06:53:34.283Z,101756.66
2022-09-01T06:56:03.730Z,101761.31
2022-09-01T06:58:31.211Z,101767.28
2022-09-01T07:00:58.202Z,101770.06
2022-09-01T07:03:26.623Z,101775.31
2022-09-01T07:06:59.085Z,101777.69
2022-09-01T07:09:20.424Z,101771.91
2022-09-01T07:12:24.654Z,101771.69
2022-09-01T07:17:50.055Z,101781.13
2022-09-01T07:20:23.506Z,101784.28
2022-09-01T07:23:08.165Z,101774.94
2022-09-01T07:26:01.580Z,101780.84
2022-09-01T07:28:37.417Z,101770.78
2022-09-01T07:39:55.536Z,101778.75
2022-09-01T07:45:59.213Z,101778.13
2022-09-01T07:49:01.339Z,101783.88
2022-09-01T07:51:37.283Z,101787.19
2022-09-01T07:54:06.662Z,101789.84
2022-09-01T07:56:39.496Z,101784.66
2022-09-01T07:59:12.740Z,101778.44
2022-09-01T08:02:06.088Z,101784.13
2022-09-01T08:04:34.468Z,101782.81
2022-09-01T08:07:01.918Z,101781.13
2022-09-01T08:09:38.083Z,101776.19
2022-09-01T08:12:09.058Z,101782.06
2022-09-01T08:14:43.810Z,101784.09
2022-09-01T08:17:34.063Z,101787.69
2022-09-01T08:20:01.188Z,101791.22
2022-09-01T08:22:46.387Z,101787.78
2022-09-01T08:25:24.754Z,101786.34
2022-09-01T08:27:59.718Z,101789.25
2022-09-01T08:30:27.875Z,101783.34
2022-09-01T08:32:55.052Z,101785.38
2022-09-01T08:35:22.972Z,101785.38
2022-09-01T08:37:50.390Z,101788.69
2022-09-01T08:40:23.015Z,101780.44
2022-09-01T08:43:18.835Z,101780.88
2022-09-01T08:46:27.664Z,101779.13
2022-09-01T08:49:25.353Z,101780.81
2022-09-01T08:52:19.895Z,101784.25
2022-09-01T08:55:10.957Z,101786.50
2022-09-01T08:57:43.148Z,101785.88
2022-09-01T09:00:23.585Z,101791.50
2022-09-01T09:03:26.127Z,101777.69
2022-09-01T09:06:24.698Z,101780.50
2022-09-01T09:09:08.535Z,101774.81
2022-09-01T09:11:55.719Z,101772.31
2022-09-01T09:14:37.404Z,101773.69
2022-09-01T09:17:05.348Z,101764.34
2022-09-01T09:19:40.979Z,101768.53
2022-09-01T09:22:12.964Z,101772.47
2022-09-01T09:25:00.386Z,101761.59
2022-09-01T09:27:40.888Z,101766.97
2022-09-01T09:30:23.524Z,101770.69
2022-09-01T09:35:51.996Z,101765.56
2022-09-01T09:38:29.278Z,101760.59
2022-09-01T09:41:20.251Z,101766.81
2022-09-01T09:44:01.435Z,101761.03
2022-09-01T09:46:44.389Z,101754.19
2022-09-01T09:49:36.685Z,101747.34
2022-09-01T09:52:10.577Z,101747.41
2022-09-01T09:55:07.226Z,101743.44
2022-09-01T09:57:41.564Z,101748.78
2022-09-01T10:00:24.473Z,101744.69
2022-09-01T10:03:08.745Z,101743.97
2022-09-01T10:05:48.743Z,101730.91
2022-09-01T10:08:27.411Z,101738.31
2022-09-01T10:10:58.211Z,101728.13
2022-09-01T10:13:32.968Z,101732.97
2022-09-01T10:16:10.563Z,101732.97
2022-09-01T10:18:42.121Z,101724.00
2022-09-01T10:21:17.417Z,101718.13
2022-09-01T10:23:45.053Z,101727.13
2022-09-01T10:26:46.938Z,101724.56
2022-09-01T10:29:24.055Z,101732.31
2022-09-01T10:32:14.882Z,101723.69
2022-09-01T10:34:43.970Z,101720.59
2022-09-01T10:37:15.995Z,101721.47
2022-09-01T10:40:12.727Z,101713.00
2022-09-01T10:42:47.597Z,101714.38
2022-09-01T10:45:38.343Z,101705.25
2022-09-01T10:48:30.555Z,101706.28
2022-09-01T10:51:18.234Z,101705.75
2022-09-01T10:53:48.067Z,101708.81
2022-09-01T10:56:53.928Z,101709.81
2022-09-01T10:59:34.474Z,101698.72
2022-09-01T11:02:28.028Z,101706.00
2022-09-01T11:04:55.598Z,101700.84
2022-09-01T11:07:29.670Z,101696.31
2022-09-01T11:10:57.011Z,101693.19
2022-09-01T11:13:36.326Z,101697.00
2022-09-01T11:16:46.469Z,101692.50
2022-09-01T11:19:38.769Z,101699.69
2022-09-01T11:22:13.048Z,101698.59
2022-09-01T11:24:40.351Z,101686.72
2022-09-01T11:27:33.509Z,101685.00
2022-09-01T11:30:09.235Z,101693.28
2022-09-01T11:32:43.738Z,101691.78
2022-09-01T11:35:20.168Z,101695.22
2022-09-01T11:37:56.922Z,101681.69
2022-09-01T11:40:32.579Z,101677.88
2022-09-01T11:43:16.582Z,101679.47
2022-09-01T11:46:09.183Z,101668.81
2022-09-01T11:48:39.436Z,101664.69
2022-09-01T11:51:06.483Z,101668.78
2022-09-01T11:53:33.706Z,101668.78
2022-09-01T11:56:16.173Z,101664.69
2022-09-01T11:58:43.172Z,101662.03
2022-09-01T12:01:23.970Z,101666.13
2022-09-01T12:03:52.865Z,101658.84
2022-09-01T12:06:29.481Z,101654.28
2022-09-01T12:09:04.818Z,101650.66
2022-09-01T12:11:35.273Z,101649.91
2022-09-01T12:14:19.364Z,101647.50
2022-09-01T12:17:00.632Z,101663.94
2022-09-01T12:19:34.897Z,101651.50
2022-09-01T12:22:16.999Z,101649.44
2022-09-01T12:24:54.754Z,101655.63
2022-09-01T12:27:25.036Z,101649.72
2022-09-01T12:29:52.343Z,101643.00
2022-09-01T12:32:20.084Z,101646.03
2022-09-01T12:35:10.875Z,101650.16
2022-09-01T12:37:38.553Z,101646.81
2022-09-01T12:40:05.843Z,101645.88
2022-09-01T12:42:41.104Z,101638.63
2022-09-01T12:45:11.605Z,101633.47
2022-09-01T12:47:40.380Z,101635.34
2022-09-01T12:50:13.777Z,101628.50
2022-09-01T12:52:52.590Z,101624.72
2022-09-01T12:55:54.070Z,101632.25
2022-09-01T12:58:25.813Z,101625.63
2022-09-01T13:01:16.597Z,101628.97
2022-09-01T13:04:25.166Z,101624.31
2022-09-01T13:06:55.229Z,101623.44
2022-09-01T13:09:22.585Z,101621.09
2022-09-01T13:12:06.697Z,101618.34
2022-09-01T13:14:34.083Z,101617.47
2022-09-01T13:17:01.244Z,101615.97
2022-09-01T13:19:30.530Z,101612.03
2022-09-01T13:21:58.141Z,101609.31
2022-09-01T13:24:29.324Z,101603.41
2022-09-01T13:29:46.557Z,101598.84
2022-09-01T13:32:19.617Z,101603.84
2022-09-01T13:34:50.545Z,101603.66
2022-09-01T13:37:22.777Z,101596.44
2022-09-01T13:39:50.269Z,101596.94
2022-09-01T13:42:17.649Z,101596.59
2022-09-01T13:44:45.216Z,101587.53
2022-09-01T13:47:29.283Z,101590.34
2022-09-01T13:50:13.494Z,101586.72
2022-09-01T13:52:45.327Z,101586.56
2022-09-01T13:55:20.783Z,101582.28
2022-09-01T13:57:48.497Z,101581.28
2022-09-01T14:00:24.177Z,101581.91
2022-09-01T14:02:56.483Z,101579.28
2022-09-01T14:05:34.224Z,101567.63
2022-09-01T14:08:02.241Z,101570.19
2022-09-01T14:10:31.943Z,101566.78
2022-09-01T14:13:00.104Z,101565.47
2022-09-01T14:15:27.697Z,101566.81
2022-09-01T14:17:57.883Z,101572.84
2022-09-01T14:20:36.091Z,101574.53
2022-09-01T14:23:06.495Z,101559.34
2022-09-01T14:25:34.530Z,101554.91
2022-09-01T14:28:03.144Z,101550.38
2022-09-01T14:30:33.103Z,101560.63
2022-09-01T14:33:02.147Z,101544.09
2022-09-01T14:35:33.163Z,101548.94
2022-09-01T14:38:02.783Z,101548.50
2022-09-01T14:40:29.768Z,101548.38
2022-09-01T14:42:56.985Z,101540.75
2022-09-01T14:45:28.651Z,101541.56
2022-09-01T14:48:00.719Z,101540.53
2022-09-01T14:50:32.624Z,101545.44
2022-09-01T14:53:02.134Z,101527.91
2022-09-01T14:55:31.235Z,101531.00
2022-09-01T14:57:59.824Z,101529.84
2022-09-01T15:00:28.000Z,101527.44
2022-09-01T15:02:56.276Z,101526.19
2022-09-01T15:05:24.509Z,101529.63
2022-09-01T15:07:52.474Z,101524.59
2022-09-01T15:10:24.816Z,101516.00
2022-09-01T15:12:57.745Z,101515.06
2022-09-01T15:15:27.808Z,101508.44
2022-09-01T15:17:56.501Z,101510.56
2022-09-01T15:20:43.040Z,101506.13
2022-09-01T15:23:11.412Z,101501.13
2022-09-01T15:25:38.502Z,101505.63
2022-09-01T15:28:06.083Z,101503.75
2022-09-01T15:30:33.579Z,101504.56
2022-09-01T15:33:01.188Z,101493.69
2022-09-01T15:35:30.324Z,101491.00
2022-09-01T15:37:58.124Z,101487.66
2022-09-01T15:40:26.364Z,101495.88
2022-09-01T15:42:54.944Z,101496.16
2022-09-01T15:45:24.844Z,101475.38
2022-09-01T15:47:51.741Z,101484.31
2022-09-01T15:50:23.942Z,101484.94
2022-09-01T15:53:07.223Z,101486.63
2022-09-01T15:55:52.879Z,101479.66
2022-09-01T15:58:20.182Z,101483.56
2022-09-01T16:00:47.144Z,101480.34
2022-09-01T16:03:14.049Z,101470.66
2022-09-01T16:05:41.384Z,101473.88
2022-09-01T16:08:11.417Z,101466.66
2022-09-01T16:10:42.135Z,101470.38
2022-09-01T16:13:10.871Z,101471.03
2022-09-01T16:15:51.027Z,101468.88
2022-09-01T16:18:41.817Z,101463.31
2022-09-01T16:21:34.898Z,101465.06
2022-09-01T16:24:10.686Z,101460.84
2022-09-01T16:26:39.635Z,101451.19
2022-09-01T16:29:32.725Z,101441.13
2022-09-01T16:31:59.777Z,101449.91
2022-09-01T16:34:28.634Z,101446.72
2022-09-01T16:37:19.860Z,101446.25
2022-09-01T16:40:00.544Z,101450.56
2022-09-01T16:42:40.890Z,101445.84
2022-09-01T16:45:27.934Z,101446.91
2022-09-01T16:48:12.851Z,101444.13
2022-09-01T16:50:54.483Z,101436.03
2022-09-01T16:53:54.286Z,101439.44
2022-09-01T16:56:42.131Z,101434.50
2022-09-01T16:59:33.677Z,101434.19
2022-09-01T17:02:15.882Z,101435.81
2022-09-01T17:05:01.132Z,101433.97
2022-09-01T17:07:58.446Z,101425.78
2022-09-01T17:10:51.103Z,101444.53
2022-09-01T17:13:23.488Z,101434.22
2022-09-01T17:16:12.641Z,101435.63
2022-09-01T17:18:58.423Z,101427.72
2022-09-01T17:21:45.099Z,101434.44
2022-09-01T17:24:38.743Z,101426.53
2022-09-01T17:27:33.982Z,101438.69
2022-09-01T17:30:02.544Z,101436.88
2022-09-01T17:33:13.015Z,101434.03
2022-09-01T17:36:07.437Z,101436.34
2022-09-01T17:39:39.471Z,101429.00
2022-09-01T17:42:21.704Z,101426.94
2022-09-01T17:45:07.130Z,101437.09
2022-09-01T17:47:45.285Z,101433.81
2022-09-01T17:50:31.007Z,101429.19
2022-09-01T17:53:34.942Z,101429.03
2022-09-01T17:56:39.549Z,101431.28
2022-09-01T17:59:57.385Z,101432.16
2022-09-01T18:03:07.358Z,101424.53
2022-09-01T18:05:46.040Z,101429.31
2022-09-01T18:08:36.043Z,101422.84
2022-09-01T18:11:21.620Z,101422.09
2022-09-01T18:13:55.859Z,101426.28
2022-09-01T18:16:43.186Z,101433.03
2022-09-01T18:19:19.495Z,101431.72
2022-09-01T18:21:56.357Z,101429.53
2022-09-01T18:24:35.503Z,101427.84
2022-09-01T18:27:02.323Z,101436.28
2022-09-01T18:29:31.710Z,101432.50
2022-09-01T18:32:18.006Z,101437.38
2022-09-01T18:35:08.034Z,101442.19
2022-09-01T18:38:14.002Z,101445.13
2022-09-01T18:40:56.366Z,101442.56
2022-09-01T18:43:37.897Z,101457.00
2022-09-01T18:46:31.865Z,101459.06
2022-09-01T18:49:23.929Z,101459.22
2022-09-01T18:52:22.077Z,101464.88
2022-09-01T18:55:55.041Z,101463.31
2022-09-01T18:58:51.756Z,101460.72
2022-09-01T19:01:54.079Z,101464.47
2022-09-01T19:04:42.632Z,101458.22
2022-09-01T19:07:31.365Z,101459.94
2022-09-01T19:10:23.817Z,101455.28
2022-09-01T19:13:16.034Z,101457.13
2022-09-01T19:15:56.780Z,101458.13
2022-09-01T19:18:45.570Z,101461.53
2022-09-01T19:21:24.790Z,101467.66
2022-09-01T19:24:13.085Z,101471.78
2022-09-01T19:26:52.219Z,101460.75
2022-09-01T19:29:25.920Z,101466.03
2022-09-01T19:32:01.830Z,101473.00
2022-09-01T19:34:39.499Z,101470.19
2022-09-01T19:37:07.771Z,101474.66
2022-09-01T19:39:44.775Z,101478.88
2022-09-01T19:42:57.000Z,101469.03
2022-09-01T19:46:03.309Z,101468.09
2022-09-01T19:49:00.111Z,101469.22
2022-09-01T19:51:58.473Z,101464.38
2022-09-01T19:54:55.786Z,101474.25
2022-09-01T19:57:30.093Z,101470.25
2022-09-01T20:00:24.334Z,101470.03
2022-09-01T20:03:01.279Z,101466.84
2022-09-01T20:05:45.445Z,101472.09
2022-09-01T20:08:42.089Z,101474.47
2022-09-01T20:11:22.463Z,101472.16
2022-09-01T20:14:01.558Z,101473.50
2022-09-01T20:16:44.542Z,101467.31
2022-09-01T20:19:28.583Z,101475.16
2022-09-01T20:22:21.246Z,101479.22
2022-09-01T20:24:48.237Z,101468.56
2022-09-01T20:27:32.099Z,101474.34
2022-09-01T20:30:12.194Z,101473.78
2022-09-01T20:32:56.261Z,101474.97
2022-09-01T20:35:40.898Z,101474.41
2022-09-01T20:39:11.431Z,101466.66
2022-09-01T20:42:19.792Z,101463.50
2022-09-01T20:44:58.797Z,101463.81
2022-09-01T20:47:30.229Z,101465.44
2022-09-01T20:50:02.575Z,101459.53
2022-09-01T20:52:57.312Z,101469.94
2022-09-01T20:55:30.671Z,101461.34
2022-09-01T20:58:15.933Z,101463.50
2022-09-01T21:00:55.647Z,101459.28
2022-09-01T21:03:40.347Z,101466.09
2022-09-01T21:06:44.838Z,101458.16
2022-09-01T21:09:43.150Z,101463.97
2022-09-01T21:12:21.619Z,101458.06
2022-09-01T21:15:12.774Z,101456.66
2022-09-01T21:18:16.635Z,101457.94
2022-09-01T21:21:08.331Z,101448.47
2022-09-01T21:23:35.175Z,101455.25
2022-09-01T21:26:02.598Z,101461.19
2022-09-01T21:28:30.033Z,101451.25
2022-09-01T21:30:59.952Z,101450.81
2022-09-01T21:33:31.529Z,101451.13
2022-09-01T21:36:00.169Z,101455.16
2022-09-01T21:38:29.421Z,101446.22
2022-09-01T21:41:00.066Z,101435.59
2022-09-01T21:43:34.623Z,101441.34
2022-09-01T21:46:02.336Z,101436.16
2022-09-01T21:48:31.055Z,101439.94
2022-09-01T21:50:57.994Z,101442.94
2022-09-01T21:53:24.830Z,101437.75
2022-09-01T21:55:51.796Z,101441.66
2022-09-01T21:58:18.747Z,101435.63
2022-09-01T22:00:47.936Z,101428.72
2022-09-01T22:03:14.875Z,101433.50
2022-09-01T22:05:44.717Z,101435.47
2022-09-01T22:08:16.107Z,101428.44
2022-09-01T22:10:52.028Z,101426.09
2022-09-01T22:13:22.911Z,101430.13
2022-09-01T22:15:54.158Z,101431.59
2022-09-01T22:18:22.478Z,101421.81
2022-09-01T22:20:49.431Z,101423.25
2022-09-01T22:23:17.346Z,101417.22
2022-09-01T22:25:46.705Z,101418.47
2022-09-01T22:28:14.540Z,101417.78
2022-09-01T22:30:50.973Z,101415.63
2022-09-01T22:33:21.498Z,101418.63
2022-09-01T22:35:53.437Z,101412.31
2022-09-01T22:38:22.373Z,101410.75
2022-09-01T22:40:55.092Z,101410.00
2022-09-01T22:43:24.518Z,101406.84
2022-09-01T22:45:52.137Z,101414.34
2022-09-01T22:48:23.677Z,101414.59
2022-09-01T22:50:51.924Z,101414.03
2022-09-01T22:53:21.289Z,101411.44
2022-09-01T22:55:51.771Z,101407.97
2022-09-01T22:58:19.283Z,101405.38
2022-09-01T23:00:53.884Z,101401.09
2022-09-01T23:03:22.339Z,101396.75
2022-09-01T23:05:50.424Z,101398.91
2022-09-01T23:08:18.012Z,101409.09
2022-09-01T23:10:44.881Z,101410.28
2022-09-01T23:13:11.772Z,101400.47
2022-09-01T23:15:38.713Z,101407.09
2022-09-01T23:18:05.621Z,101400.19
2022-09-01T23:20:32.509Z,101399.59
2022-09-01T23:22:59.314Z,101395.44
2022-09-01T23:25:26.327Z,101392.94
2022-09-01T23:27:53.137Z,101397.81
2022-09-01T23:30:19.968Z,101392.75
2022-09-01T23:32:46.929Z,101392.19
2022-09-01T23:35:14.181Z,101392.47
2022-09-01T23:37:43.584Z,101386.56
2022-09-01T23:40:10.736Z,101388.84
2022-09-01T23:42:37.749Z,101390.25
2022-09-01T23:45:06.030Z,101387.06
2022-09-01T23:47:33.065Z,101387.38
2022-09-01T23:49:59.954Z,101384.19
2022-09-01T23:52:26.818Z,101380.72
2022-09-01T23:54:54.580Z,101377.53
2022-09-01T23:57:21.581Z,101383.53
2022-09-01T23:59:48.514Z,101375.63
